sensor_id;sensor_type;location;lat;lon;timestamp;P1;durP1;ratioP1;P2;durP2;ratioP2
43962;SDS011;29622;45.534;9.242;2023-10-19T00:00:29;46.90;;;29.23;;
43962;SDS011;29622;45.534;9.242;2023-10-19T00:05:33;39.85;;;24.75;;
43962;SDS011;29622;45.534;9.242;2023-10-19T00:10:34;40.45;;;26.15;;
43962;SDS011;29622;45.534;9.242;2023-10-19T00:15:36;40.00;;;26.77;;
43962;SDS011;29622;45.534;9.242;2023-10-19T00:20:44;41.72;;;27.13;;
43962;SDS011;29622;45.534;9.242;2023-10-19T00:25:45;47.75;;;28.75;;
43962;SDS011;29622;45.534;9.242;2023-10-19T00:30:51;47.13;;;26.73;;
43962;SDS011;29622;45.534;9.242;2023-10-19T00:35:53;44.25;;;27.77;;
43962;SDS011;29622;45.534;9.242;2023-10-19T00:41:07;43.30;;;28.73;;
43962;SDS011;29622;45.534;9.242;2023-10-19T00:46:20;40.97;;;26.20;;
43962;SDS011;29622;45.534;9.242;2023-10-19T00:51:21;41.42;;;26.88;;
43962;SDS011;29622;45.534;9.242;2023-10-19T00:56:46;42.90;;;28.40;;
43962;SDS011;29622;45.534;9.242;2023-10-19T01:01:56;40.63;;;23.50;;
43962;SDS011;29622;45.534;9.242;2023-10-19T01:07:16;48.30;;;29.15;;
43962;SDS011;29622;45.534;9.242;2023-10-19T01:12:27;40.13;;;26.60;;
43962;SDS011;29622;45.534;9.242;2023-10-19T01:17:32;42.72;;;27.38;;
43962;SDS011;29622;45.534;9.242;2023-10-19T01:22:42;48.25;;;30.05;;
43962;SDS011;29622;45.534;9.242;2023-10-19T01:27:47;44.60;;;28.25;;
43962;SDS011;29622;45.534;9.242;2023-10-19T01:32:48;47.15;;;28.52;;
43962;SDS011;29622;45.534;9.242;2023-10-19T01:37:48;36.33;;;22.90;;
43962;SDS011;29622;45.534;9.242;2023-10-19T01:42:49;47.20;;;30.38;;
43962;SDS011;29622;45.534;9.242;2023-10-19T01:47:49;43.38;;;27.83;;
43962;SDS011;29622;45.534;9.242;2023-10-19T01:52:52;43.70;;;28.10;;
43962;SDS011;29622;45.534;9.242;2023-10-19T01:57:52;43.08;;;28.15;;
43962;SDS011;29622;45.534;9.242;2023-10-19T02:02:53;45.25;;;28.95;;
43962;SDS011;29622;45.534;9.242;2023-10-19T02:07:54;47.63;;;28.73;;
43962;SDS011;29622;45.534;9.242;2023-10-19T02:12:54;37.28;;;25.42;;
43962;SDS011;29622;45.534;9.242;2023-10-19T02:18:07;10.27;;;6.25;;
43962;SDS011;29622;45.534;9.242;2023-10-19T02:23:09;44.47;;;28.00;;
43962;SDS011;29622;45.534;9.242;2023-10-19T02:28:12;43.45;;;27.00;;
43962;SDS011;29622;45.534;9.242;2023-10-19T02:33:14;37.85;;;24.00;;
43962;SDS011;29622;45.534;9.242;2023-10-19T02:38:14;30.77;;;20.83;;
43962;SDS011;29622;45.534;9.242;2023-10-19T02:43:15;45.35;;;28.80;;
43962;SDS011;29622;45.534;9.242;2023-10-19T02:48:16;43.42;;;28.67;;
43962;SDS011;29622;45.534;9.242;2023-10-19T02:53:16;44.55;;;29.48;;
43962;SDS011;29622;45.534;9.242;2023-10-19T02:58:19;50.00;;;29.63;;
43962;SDS011;29622;45.534;9.242;2023-10-19T03:03:19;14.38;;;8.15;;
43962;SDS011;29622;45.534;9.242;2023-10-19T03:08:20;48.70;;;29.63;;
43962;SDS011;29622;45.534;9.242;2023-10-19T03:13:21;23.48;;;14.43;;
43962;SDS011;29622;45.534;9.242;2023-10-19T03:18:22;42.17;;;27.83;;
43962;SDS011;29622;45.534;9.242;2023-10-19T03:23:25;39.35;;;26.15;;
43962;SDS011;29622;45.534;9.242;2023-10-19T03:28:27;41.28;;;27.45;;
43962;SDS011;29622;45.534;9.242;2023-10-19T03:33:29;42.17;;;26.77;;
43962;SDS011;29622;45.534;9.242;2023-10-19T03:38:31;40.83;;;27.95;;
43962;SDS011;29622;45.534;9.242;2023-10-19T03:43:35;39.47;;;26.92;;
43962;SDS011;29622;45.534;9.242;2023-10-19T03:48:40;42.53;;;27.02;;
43962;SDS011;29622;45.534;9.242;2023-10-19T03:53:41;40.88;;;25.17;;
43962;SDS011;29622;45.534;9.242;2023-10-19T03:58:48;39.70;;;27.60;;
43962;SDS011;29622;45.534;9.242;2023-10-19T04:03:51;40.45;;;27.27;;
43962;SDS011;29622;45.534;9.242;2023-10-19T04:08:55;39.15;;;26.83;;
43962;SDS011;29622;45.534;9.242;2023-10-19T04:13:55;27.02;;;18.10;;
43962;SDS011;29622;45.534;9.242;2023-10-19T04:18:59;15.05;;;7.32;;
43962;SDS011;29622;45.534;9.242;2023-10-19T04:23:59;35.95;;;24.98;;
43962;SDS011;29622;45.534;9.242;2023-10-19T04:29:00;31.40;;;19.65;;
43962;SDS011;29622;45.534;9.242;2023-10-19T04:39:10;44.50;;;25.77;;
43962;SDS011;29622;45.534;9.242;2023-10-19T04:44:13;14.30;;;8.63;;
43962;SDS011;29622;45.534;9.242;2023-10-19T04:49:15;39.70;;;25.92;;
43962;SDS011;29622;45.534;9.242;2023-10-19T04:54:16;41.38;;;25.35;;
43962;SDS011;29622;45.534;9.242;2023-10-19T04:59:17;37.95;;;24.77;;
43962;SDS011;29622;45.534;9.242;2023-10-19T05:04:18;40.50;;;25.13;;
43962;SDS011;29622;45.534;9.242;2023-10-19T05:09:20;39.03;;;24.60;;
43962;SDS011;29622;45.534;9.242;2023-10-19T05:14:21;39.58;;;25.52;;
43962;SDS011;29622;45.534;9.242;2023-10-19T05:19:21;36.58;;;24.65;;
43962;SDS011;29622;45.534;9.242;2023-10-19T05:24:22;40.95;;;24.35;;
43962;SDS011;29622;45.534;9.242;2023-10-19T05:29:22;42.20;;;24.63;;
43962;SDS011;29622;45.534;9.242;2023-10-19T05:34:26;14.45;;;9.43;;
43962;SDS011;29622;45.534;9.242;2023-10-19T05:39:26;34.85;;;22.73;;
43962;SDS011;29622;45.534;9.242;2023-10-19T05:44:31;36.20;;;23.10;;
43962;SDS011;29622;45.534;9.242;2023-10-19T05:49:32;35.55;;;23.00;;
43962;SDS011;29622;45.534;9.242;2023-10-19T05:54:33;35.00;;;21.63;;
43962;SDS011;29622;45.534;9.242;2023-10-19T05:59:33;41.15;;;22.27;;
43962;SDS011;29622;45.534;9.242;2023-10-19T06:04:34;35.92;;;21.20;;
43962;SDS011;29622;45.534;9.242;2023-10-19T06:09:35;35.90;;;22.20;;
43962;SDS011;29622;45.534;9.242;2023-10-19T06:14:36;26.90;;;17.88;;
43962;SDS011;29622;45.534;9.242;2023-10-19T06:19:38;39.15;;;23.38;;
43962;SDS011;29622;45.534;9.242;2023-10-19T06:24:39;39.28;;;22.88;;
43962;SDS011;29622;45.534;9.242;2023-10-19T06:29:41;14.13;;;9.55;;
43962;SDS011;29622;45.534;9.242;2023-10-19T06:34:42;35.95;;;22.90;;
43962;SDS011;29622;45.534;9.242;2023-10-19T06:39:42;17.60;;;5.10;;
43962;SDS011;29622;45.534;9.242;2023-10-19T06:44:43;30.73;;;17.90;;
43962;SDS011;29622;45.534;9.242;2023-10-19T06:49:44;30.75;;;20.60;;
43962;SDS011;29622;45.534;9.242;2023-10-19T06:54:46;35.35;;;20.85;;
43962;SDS011;29622;45.534;9.242;2023-10-19T06:59:46;33.10;;;20.00;;
43962;SDS011;29622;45.534;9.242;2023-10-19T07:04:48;27.48;;;17.95;;
43962;SDS011;29622;45.534;9.242;2023-10-19T07:09:49;31.75;;;19.83;;
43962;SDS011;29622;45.534;9.242;2023-10-19T07:14:52;18.38;;;9.60;;
43962;SDS011;29622;45.534;9.242;2023-10-19T07:19:53;15.23;;;7.35;;
43962;SDS011;29622;45.534;9.242;2023-10-19T07:24:53;16.52;;;6.85;;
43962;SDS011;29622;45.534;9.242;2023-10-19T07:29:55;30.15;;;17.83;;
43962;SDS011;29622;45.534;9.242;2023-10-19T07:34:57;30.75;;;17.75;;
43962;SDS011;29622;45.534;9.242;2023-10-19T07:39:58;87.97;;;39.90;;
43962;SDS011;29622;45.534;9.242;2023-10-19T07:44:59;31.95;;;18.45;;
43962;SDS011;29622;45.534;9.242;2023-10-19T07:49:59;27.65;;;18.15;;
43962;SDS011;29622;45.534;9.242;2023-10-19T07:55:03;28.15;;;17.25;;
43962;SDS011;29622;45.534;9.242;2023-10-19T08:00:04;30.25;;;18.42;;
43962;SDS011;29622;45.534;9.242;2023-10-19T08:05:05;29.33;;;17.02;;
43962;SDS011;29622;45.534;9.242;2023-10-19T08:10:07;26.35;;;16.20;;
43962;SDS011;29622;45.534;9.242;2023-10-19T08:15:10;26.02;;;15.85;;
43962;SDS011;29622;45.534;9.242;2023-10-19T08:20:12;12.82;;;7.47;;
43962;SDS011;29622;45.534;9.242;2023-10-19T08:25:23;19.05;;;11.38;;
43962;SDS011;29622;45.534;9.242;2023-10-19T08:30:27;17.88;;;11.82;;
43962;SDS011;29622;45.534;9.242;2023-10-19T08:35:28;18.33;;;10.93;;
43962;SDS011;29622;45.534;9.242;2023-10-19T08:40:30;20.83;;;12.00;;
43962;SDS011;29622;45.534;9.242;2023-10-19T08:45:31;23.08;;;13.35;;
43962;SDS011;29622;45.534;9.242;2023-10-19T08:50:34;19.92;;;12.52;;
43962;SDS011;29622;45.534;9.242;2023-10-19T08:55:35;17.85;;;12.05;;
43962;SDS011;29622;45.534;9.242;2023-10-19T09:00:51;27.02;;;14.90;;
43962;SDS011;29622;45.534;9.242;2023-10-19T09:05:54;19.47;;;12.23;;
43962;SDS011;29622;45.534;9.242;2023-10-19T09:10:56;13.43;;;8.35;;
43962;SDS011;29622;45.534;9.242;2023-10-19T09:15:57;17.05;;;11.85;;
43962;SDS011;29622;45.534;9.242;2023-10-19T09:21:06;20.53;;;12.93;;
43962;SDS011;29622;45.534;9.242;2023-10-19T09:26:11;12.07;;;5.63;;
43962;SDS011;29622;45.534;9.242;2023-10-19T09:31:12;19.17;;;12.40;;
43962;SDS011;29622;45.534;9.242;2023-10-19T09:36:14;20.75;;;12.48;;
43962;SDS011;29622;45.534;9.242;2023-10-19T09:41:15;17.13;;;11.60;;
43962;SDS011;29622;45.534;9.242;2023-10-19T09:46:22;20.80;;;11.85;;
43962;SDS011;29622;45.534;9.242;2023-10-19T09:51:26;21.67;;;10.33;;
43962;SDS011;29622;45.534;9.242;2023-10-19T09:56:46;17.63;;;11.43;;
43962;SDS011;29622;45.534;9.242;2023-10-19T10:02:12;8.65;;;5.65;;
43962;SDS011;29622;45.534;9.242;2023-10-19T10:07:13;16.40;;;11.00;;
43962;SDS011;29622;45.534;9.242;2023-10-19T10:12:19;6.63;;;3.47;;
43962;SDS011;29622;45.534;9.242;2023-10-19T10:17:24;6.57;;;3.95;;
43962;SDS011;29622;45.534;9.242;2023-10-19T10:22:26;15.00;;;8.98;;
43962;SDS011;29622;45.534;9.242;2023-10-19T10:27:27;12.60;;;7.82;;
43962;SDS011;29622;45.534;9.242;2023-10-19T10:32:49;14.57;;;9.60;;
43962;SDS011;29622;45.534;9.242;2023-10-19T10:37:53;11.90;;;7.53;;
43962;SDS011;29622;45.534;9.242;2023-10-19T10:43:04;13.07;;;8.73;;
43962;SDS011;29622;45.534;9.242;2023-10-19T10:48:12;13.60;;;8.40;;
43962;SDS011;29622;45.534;9.242;2023-10-19T10:53:13;15.85;;;9.20;;
43962;SDS011;29622;45.534;9.242;2023-10-19T10:58:18;6.18;;;3.45;;
43962;SDS011;29622;45.534;9.242;2023-10-19T11:03:19;12.35;;;7.75;;
43962;SDS011;29622;45.534;9.242;2023-10-19T11:08:23;10.32;;;7.25;;
43962;SDS011;29622;45.534;9.242;2023-10-19T11:13:24;12.68;;;9.10;;
43962;SDS011;29622;45.534;9.242;2023-10-19T11:28:37;13.10;;;8.30;;
43962;SDS011;29622;45.534;9.242;2023-10-19T11:33:43;11.50;;;6.50;;
43962;SDS011;29622;45.534;9.242;2023-10-19T11:38:48;18.40;;;8.55;;
43962;SDS011;29622;45.534;9.242;2023-10-19T11:43:51;18.27;;;9.85;;
43962;SDS011;29622;45.534;9.242;2023-10-19T11:48:52;15.18;;;8.35;;
43962;SDS011;29622;45.534;9.242;2023-10-19T11:53:53;13.27;;;8.15;;
43962;SDS011;29622;45.534;9.242;2023-10-19T11:58:56;14.00;;;7.65;;
43962;SDS011;29622;45.534;9.242;2023-10-19T12:03:56;12.80;;;7.90;;
43962;SDS011;29622;45.534;9.242;2023-10-19T12:08:58;15.45;;;7.40;;
43962;SDS011;29622;45.534;9.242;2023-10-19T12:13:59;13.48;;;7.72;;
43962;SDS011;29622;45.534;9.242;2023-10-19T12:19:03;13.27;;;8.05;;
43962;SDS011;29622;45.534;9.242;2023-10-19T12:24:04;12.63;;;8.20;;
43962;SDS011;29622;45.534;9.242;2023-10-19T12:29:05;14.63;;;7.85;;
43962;SDS011;29622;45.534;9.242;2023-10-19T12:34:11;17.27;;;8.50;;
43962;SDS011;29622;45.534;9.242;2023-10-19T12:39:11;12.75;;;7.57;;
43962;SDS011;29622;45.534;9.242;2023-10-19T12:44:33;9.65;;;7.03;;
43962;SDS011;29622;45.534;9.242;2023-10-19T12:49:42;14.00;;;7.05;;
43962;SDS011;29622;45.534;9.242;2023-10-19T12:54:45;10.45;;;6.88;;
43962;SDS011;29622;45.534;9.242;2023-10-19T12:59:48;11.43;;;6.18;;
43962;SDS011;29622;45.534;9.242;2023-10-19T13:04:50;12.63;;;8.00;;
43962;SDS011;29622;45.534;9.242;2023-10-19T13:09:51;13.68;;;6.80;;
43962;SDS011;29622;45.534;9.242;2023-10-19T13:14:52;8.38;;;3.92;;
43962;SDS011;29622;45.534;9.242;2023-10-19T13:19:52;12.52;;;6.10;;
43962;SDS011;29622;45.534;9.242;2023-10-19T13:24:56;19.30;;;5.78;;
43962;SDS011;29622;45.534;9.242;2023-10-19T13:29:57;9.48;;;4.57;;
43962;SDS011;29622;45.534;9.242;2023-10-19T13:34:57;12.48;;;7.80;;
43962;SDS011;29622;45.534;9.242;2023-10-19T13:39:58;9.07;;;5.75;;
43962;SDS011;29622;45.534;9.242;2023-10-19T13:45:01;6.88;;;3.67;;
43962;SDS011;29622;45.534;9.242;2023-10-19T13:50:02;14.40;;;7.82;;
43962;SDS011;29622;45.534;9.242;2023-10-19T13:55:03;8.55;;;4.95;;
43962;SDS011;29622;45.534;9.242;2023-10-19T14:00:05;21.38;;;11.52;;
43962;SDS011;29622;45.534;9.242;2023-10-19T14:05:09;25.08;;;13.07;;
43962;SDS011;29622;45.534;9.242;2023-10-19T14:10:10;10.27;;;4.55;;
43962;SDS011;29622;45.534;9.242;2023-10-19T14:15:17;10.98;;;6.97;;
43962;SDS011;29622;45.534;9.242;2023-10-19T14:20:19;8.85;;;3.53;;
43962;SDS011;29622;45.534;9.242;2023-10-19T14:25:20;31.15;;;16.20;;
43962;SDS011;29622;45.534;9.242;2023-10-19T14:30:23;28.92;;;13.98;;
43962;SDS011;29622;45.534;9.242;2023-10-19T14:35:25;22.65;;;8.38;;
43962;SDS011;29622;45.534;9.242;2023-10-19T14:40:26;13.25;;;5.75;;
43962;SDS011;29622;45.534;9.242;2023-10-19T14:45:28;21.52;;;13.88;;
43962;SDS011;29622;45.534;9.242;2023-10-19T14:50:28;12.90;;;7.65;;
43962;SDS011;29622;45.534;9.242;2023-10-19T14:55:30;19.52;;;11.82;;
43962;SDS011;29622;45.534;9.242;2023-10-19T15:00:30;10.50;;;5.70;;
43962;SDS011;29622;45.534;9.242;2023-10-19T15:05:36;9.90;;;5.88;;
43962;SDS011;29622;45.534;9.242;2023-10-19T15:10:40;18.55;;;12.40;;
43962;SDS011;29622;45.534;9.242;2023-10-19T15:15:44;14.90;;;7.82;;
43962;SDS011;29622;45.534;9.242;2023-10-19T15:20:45;11.45;;;6.50;;
43962;SDS011;29622;45.534;9.242;2023-10-19T15:25:46;8.82;;;5.43;;
43962;SDS011;29622;45.534;9.242;2023-10-19T15:30:46;16.02;;;9.25;;
43962;SDS011;29622;45.534;9.242;2023-10-19T15:35:47;14.30;;;9.45;;
43962;SDS011;29622;45.534;9.242;2023-10-19T15:40:48;14.43;;;10.02;;
43962;SDS011;29622;45.534;9.242;2023-10-19T15:45:50;13.65;;;9.68;;
43962;SDS011;29622;45.534;9.242;2023-10-19T15:50:50;18.75;;;9.80;;
43962;SDS011;29622;45.534;9.242;2023-10-19T15:55:52;15.63;;;10.70;;
43962;SDS011;29622;45.534;9.242;2023-10-19T16:00:52;18.42;;;11.73;;
43962;SDS011;29622;45.534;9.242;2023-10-19T16:05:53;16.48;;;8.95;;
43962;SDS011;29622;45.534;9.242;2023-10-19T16:10:54;12.35;;;6.35;;
43962;SDS011;29622;45.534;9.242;2023-10-19T16:15:55;11.23;;;4.70;;
43962;SDS011;29622;45.534;9.242;2023-10-19T16:20:56;12.40;;;8.30;;
43962;SDS011;29622;45.534;9.242;2023-10-19T16:25:57;10.82;;;8.35;;
43962;SDS011;29622;45.534;9.242;2023-10-19T16:31:03;9.93;;;4.80;;
43962;SDS011;29622;45.534;9.242;2023-10-19T16:36:05;11.43;;;6.53;;
43962;SDS011;29622;45.534;9.242;2023-10-19T16:41:06;11.27;;;7.90;;
43962;SDS011;29622;45.534;9.242;2023-10-19T16:46:07;10.98;;;6.82;;
43962;SDS011;29622;45.534;9.242;2023-10-19T16:51:07;10.20;;;6.72;;
43962;SDS011;29622;45.534;9.242;2023-10-19T16:56:08;11.45;;;6.75;;
43962;SDS011;29622;45.534;9.242;2023-10-19T17:01:09;13.38;;;7.75;;
43962;SDS011;29622;45.534;9.242;2023-10-19T17:06:10;12.82;;;7.88;;
43962;SDS011;29622;45.534;9.242;2023-10-19T17:11:11;11.48;;;5.18;;
43962;SDS011;29622;45.534;9.242;2023-10-19T17:16:12;13.15;;;5.85;;
43962;SDS011;29622;45.534;9.242;2023-10-19T17:21:13;15.60;;;5.90;;
43962;SDS011;29622;45.534;9.242;2023-10-19T17:26:13;11.63;;;5.97;;
43962;SDS011;29622;45.534;9.242;2023-10-19T17:31:14;15.40;;;7.22;;
43962;SDS011;29622;45.534;9.242;2023-10-19T17:36:16;14.27;;;4.90;;
43962;SDS011;29622;45.534;9.242;2023-10-19T17:41:17;9.15;;;7.82;;
43962;SDS011;29622;45.534;9.242;2023-10-19T17:46:18;13.63;;;6.93;;
43962;SDS011;29622;45.534;9.242;2023-10-19T17:51:19;9.70;;;7.03;;
43962;SDS011;29622;45.534;9.242;2023-10-19T17:56:21;11.05;;;8.45;;
43962;SDS011;29622;45.534;9.242;2023-10-19T18:01:22;12.05;;;7.10;;
43962;SDS011;29622;45.534;9.242;2023-10-19T18:06:23;15.07;;;10.60;;
43962;SDS011;29622;45.534;9.242;2023-10-19T18:11:24;18.88;;;11.10;;
43962;SDS011;29622;45.534;9.242;2023-10-19T18:16:26;12.50;;;7.82;;
43962;SDS011;29622;45.534;9.242;2023-10-19T18:21:26;11.35;;;7.90;;
43962;SDS011;29622;45.534;9.242;2023-10-19T18:26:27;9.93;;;7.20;;
43962;SDS011;29622;45.534;9.242;2023-10-19T18:31:28;10.48;;;7.45;;
43962;SDS011;29622;45.534;9.242;2023-10-19T18:36:30;12.20;;;7.80;;
43962;SDS011;29622;45.534;9.242;2023-10-19T18:41:33;11.75;;;7.75;;
43962;SDS011;29622;45.534;9.242;2023-10-19T18:46:34;10.23;;;7.50;;
43962;SDS011;29622;45.534;9.242;2023-10-19T18:51:35;10.88;;;7.10;;
43962;SDS011;29622;45.534;9.242;2023-10-19T18:56:36;11.50;;;7.82;;
43962;SDS011;29622;45.534;9.242;2023-10-19T19:01:38;15.55;;;8.50;;
43962;SDS011;29622;45.534;9.242;2023-10-19T19:06:39;19.13;;;8.68;;
43962;SDS011;29622;45.534;9.242;2023-10-19T19:11:40;11.38;;;8.27;;
43962;SDS011;29622;45.534;9.242;2023-10-19T19:16:42;11.60;;;8.13;;
43962;SDS011;29622;45.534;9.242;2023-10-19T19:21:44;14.38;;;8.65;;
43962;SDS011;29622;45.534;9.242;2023-10-19T19:26:44;46.33;;;25.10;;
43962;SDS011;29622;45.534;9.242;2023-10-19T19:31:45;15.23;;;9.65;;
43962;SDS011;29622;45.534;9.242;2023-10-19T19:36:49;13.60;;;9.88;;
43962;SDS011;29622;45.534;9.242;2023-10-19T19:41:49;17.25;;;7.38;;
43962;SDS011;29622;45.534;9.242;2023-10-19T19:46:50;22.40;;;11.48;;
43962;SDS011;29622;45.534;9.242;2023-10-19T19:51:51;16.67;;;10.15;;
43962;SDS011;29622;45.534;9.242;2023-10-19T19:56:51;13.25;;;8.57;;
43962;SDS011;29622;45.534;9.242;2023-10-19T20:01:52;17.25;;;10.25;;
43962;SDS011;29622;45.534;9.242;2023-10-19T20:06:53;14.18;;;8.88;;
43962;SDS011;29622;45.534;9.242;2023-10-19T20:11:53;12.35;;;7.47;;
43962;SDS011;29622;45.534;9.242;2023-10-19T20:16:54;14.52;;;8.98;;
43962;SDS011;29622;45.534;9.242;2023-10-19T20:21:54;12.30;;;8.82;;
43962;SDS011;29622;45.534;9.242;2023-10-19T20:26:55;14.00;;;9.07;;
43962;SDS011;29622;45.534;9.242;2023-10-19T20:31:56;14.02;;;9.55;;
43962;SDS011;29622;45.534;9.242;2023-10-19T20:36:57;13.05;;;8.40;;
43962;SDS011;29622;45.534;9.242;2023-10-19T20:41:58;17.40;;;10.25;;
43962;SDS011;29622;45.534;9.242;2023-10-19T20:46:59;15.98;;;10.27;;
43962;SDS011;29622;45.534;9.242;2023-10-19T20:51:59;14.40;;;8.95;;
43962;SDS011;29622;45.534;9.242;2023-10-19T20:57:00;16.88;;;9.88;;
43962;SDS011;29622;45.534;9.242;2023-10-19T21:02:02;21.48;;;11.32;;
43962;SDS011;29622;45.534;9.242;2023-10-19T21:07:04;15.70;;;10.43;;
43962;SDS011;29622;45.534;9.242;2023-10-19T21:12:05;16.58;;;10.27;;
43962;SDS011;29622;45.534;9.242;2023-10-19T21:17:06;15.35;;;9.90;;
43962;SDS011;29622;45.534;9.242;2023-10-19T21:22:06;15.55;;;9.50;;
43962;SDS011;29622;45.534;9.242;2023-10-19T21:27:07;13.27;;;9.05;;
43962;SDS011;29622;45.534;9.242;2023-10-19T21:32:10;16.17;;;9.88;;
43962;SDS011;29622;45.534;9.242;2023-10-19T21:37:12;15.18;;;9.82;;
43962;SDS011;29622;45.534;9.242;2023-10-19T21:42:13;15.35;;;9.60;;
43962;SDS011;29622;45.534;9.242;2023-10-19T21:47:14;14.02;;;9.85;;
43962;SDS011;29622;45.534;9.242;2023-10-19T21:52:18;17.25;;;10.27;;
43962;SDS011;29622;45.534;9.242;2023-10-19T21:57:23;17.05;;;9.82;;
43962;SDS011;29622;45.534;9.242;2023-10-19T22:02:25;15.20;;;10.52;;
43962;SDS011;29622;45.534;9.242;2023-10-19T22:07:26;22.00;;;11.48;;
43962;SDS011;29622;45.534;9.242;2023-10-19T22:12:26;14.30;;;7.45;;
43962;SDS011;29622;45.534;9.242;2023-10-19T22:17:27;36.92;;;12.07;;
43962;SDS011;29622;45.534;9.242;2023-10-19T22:22:28;19.13;;;12.00;;
43962;SDS011;29622;45.534;9.242;2023-10-19T22:27:28;11.70;;;6.40;;
43962;SDS011;29622;45.534;9.242;2023-10-19T22:32:31;20.08;;;11.30;;
43962;SDS011;29622;45.534;9.242;2023-10-19T22:37:33;17.80;;;10.27;;
43962;SDS011;29622;45.534;9.242;2023-10-19T22:42:33;22.98;;;12.52;;
43962;SDS011;29622;45.534;9.242;2023-10-19T22:47:34;26.20;;;13.90;;
43962;SDS011;29622;45.534;9.242;2023-10-19T22:52:35;28.02;;;14.30;;
43962;SDS011;29622;45.534;9.242;2023-10-19T22:57:36;24.90;;;14.68;;
43962;SDS011;29622;45.534;9.242;2023-10-19T23:02:37;34.03;;;14.60;;
43962;SDS011;29622;45.534;9.242;2023-10-19T23:07:37;25.38;;;14.35;;
43962;SDS011;29622;45.534;9.242;2023-10-19T23:12:38;23.70;;;13.27;;
43962;SDS011;29622;45.534;9.242;2023-10-19T23:17:41;25.50;;;13.52;;
43962;SDS011;29622;45.534;9.242;2023-10-19T23:22:49;18.48;;;10.57;;
43962;SDS011;29622;45.534;9.242;2023-10-19T23:27:51;9.95;;;5.70;;
43962;SDS011;29622;45.534;9.242;2023-10-19T23:32:51;20.17;;;10.98;;
43962;SDS011;29622;45.534;9.242;2023-10-19T23:37:52;16.40;;;10.13;;
43962;SDS011;29622;45.534;9.242;2023-10-19T23:42:52;15.82;;;9.02;;
43962;SDS011;29622;45.534;9.242;2023-10-19T23:47:53;11.30;;;6.32;;
43962;SDS011;29622;45.534;9.242;2023-10-19T23:52:54;15.15;;;7.82;;
43962;SDS011;29622;45.534;9.242;2023-10-19T23:57:54;13.30;;;6.53;;
